createdAt,value
2018-12-22T00:00:01.816Z,14.80
2018-12-22T00:02:28.475Z,14.82
2018-12-22T00:04:55.119Z,14.83
2018-12-22T00:07:21.769Z,14.79
2018-12-22T00:09:48.425Z,14.79
2018-12-22T00:12:15.080Z,14.80
2018-12-22T00:14:41.718Z,14.79
2018-12-22T00:17:08.422Z,14.81
2018-12-22T00:19:35.061Z,14.78
2018-12-22T00:22:01.714Z,14.81
2018-12-22T00:24:28.358Z,14.80
2018-12-22T00:26:55.055Z,14.79
2018-12-22T00:29:21.760Z,14.78
2018-12-22T00:31:48.405Z,14.78
2018-12-22T00:34:15.127Z,15.13
2018-12-22T00:36:41.781Z,15.29
2018-12-22T00:39:08.434Z,15.30
2018-12-22T00:41:35.095Z,15.09
2018-12-22T00:44:01.727Z,15.04
2018-12-22T00:46:28.378Z,14.99
2018-12-22T00:48:55.019Z,14.98
2018-12-22T00:51:21.675Z,14.94
2018-12-22T00:53:48.330Z,14.94
2018-12-22T00:56:15.018Z,14.90
2018-12-22T00:58:41.669Z,14.90
2018-12-22T01:01:08.308Z,14.88
2018-12-22T01:03:34.960Z,14.86
2018-12-22T01:06:01.601Z,14.86
2018-12-22T01:08:28.258Z,14.85
2018-12-22T01:10:54.900Z,14.87
2018-12-22T01:13:21.596Z,14.85
2018-12-22T01:15:48.233Z,14.84
2018-12-22T01:18:14.983Z,14.86
2018-12-22T01:20:41.714Z,14.83
2018-12-22T01:23:08.409Z,14.82
2018-12-22T01:25:35.040Z,14.81
2018-12-22T01:28:01.688Z,14.81
2018-12-22T01:30:28.341Z,14.80
2018-12-22T01:32:54.985Z,14.81
2018-12-22T01:35:21.664Z,14.84
2018-12-22T01:37:48.489Z,14.92
2018-12-22T01:40:15.129Z,14.90
2018-12-22T01:42:41.769Z,15.02
2018-12-22T01:45:08.412Z,15.01
2018-12-22T01:47:35.057Z,14.98
2018-12-22T01:50:01.705Z,14.91
2018-12-22T01:52:28.420Z,14.90
2018-12-22T01:54:55.061Z,14.88
2018-12-22T01:57:21.701Z,14.85
2018-12-22T01:59:48.409Z,14.83
2018-12-22T02:02:15.057Z,14.83
2018-12-22T02:04:41.711Z,14.80
2018-12-22T02:07:08.366Z,14.80
2018-12-22T02:09:35.058Z,14.80
2018-12-22T02:12:01.700Z,14.80
2018-12-22T02:14:28.351Z,14.78
2018-12-22T02:16:55.036Z,14.76
2018-12-22T02:19:21.676Z,14.76
2018-12-22T02:21:48.319Z,14.78
2018-12-22T02:24:14.987Z,14.75
2018-12-22T02:26:41.685Z,14.78
2018-12-22T02:29:08.326Z,14.74
2018-12-22T02:31:34.968Z,14.71
2018-12-22T02:34:01.626Z,14.73
2018-12-22T02:36:28.268Z,14.71
2018-12-22T02:38:54.931Z,14.72
2018-12-22T02:41:21.614Z,14.79
2018-12-22T02:43:48.313Z,14.83
2018-12-22T02:46:14.994Z,14.92
2018-12-22T02:48:41.651Z,14.85
2018-12-22T02:51:08.284Z,14.90
2018-12-22T02:53:34.940Z,14.89
2018-12-22T02:56:01.580Z,14.87
2018-12-22T02:58:28.283Z,14.83
2018-12-22T03:00:54.920Z,14.82
2018-12-22T03:03:21.625Z,14.81
2018-12-22T03:05:48.279Z,14.80
2018-12-22T03:08:14.966Z,14.81
2018-12-22T03:10:41.608Z,14.80
2018-12-22T03:13:08.248Z,14.78
2018-12-22T03:15:34.952Z,14.78
2018-12-22T03:18:01.596Z,14.78
2018-12-22T03:20:28.246Z,14.79
2018-12-22T03:22:54.898Z,14.79
2018-12-22T03:25:21.593Z,14.79
2018-12-22T03:27:48.284Z,14.77
2018-12-22T03:30:14.932Z,14.79
2018-12-22T03:32:41.575Z,14.80
2018-12-22T03:35:08.266Z,14.79
2018-12-22T03:37:34.978Z,14.83
2018-12-22T03:40:01.682Z,14.75
2018-12-22T03:42:28.323Z,14.77
2018-12-22T03:44:54.952Z,14.79
2018-12-22T03:47:21.667Z,14.78
2018-12-22T03:49:48.306Z,14.90
2018-12-22T03:52:14.960Z,14.93
2018-12-22T03:54:41.614Z,14.86
2018-12-22T03:57:08.269Z,14.86
2018-12-22T03:59:34.923Z,14.84
2018-12-22T04:02:01.659Z,14.80
2018-12-22T04:04:28.300Z,14.75
2018-12-22T04:06:54.993Z,14.76
2018-12-22T04:09:21.685Z,14.74
2018-12-22T04:11:48.340Z,14.73
2018-12-22T04:14:15.030Z,14.71
2018-12-22T04:16:41.665Z,14.73
2018-12-22T04:19:08.356Z,14.72
2018-12-22T04:21:34.993Z,14.70
2018-12-22T04:24:01.654Z,14.67
2018-12-22T04:26:28.335Z,14.68
2018-12-22T04:28:54.981Z,14.68
2018-12-22T04:31:21.618Z,14.68
2018-12-22T04:33:48.317Z,14.68
2018-12-22T04:36:14.963Z,14.67
2018-12-22T04:38:41.601Z,14.65
2018-12-22T04:41:08.344Z,14.74
2018-12-22T04:43:34.988Z,14.65
2018-12-22T04:46:01.705Z,14.64
2018-12-22T04:48:28.327Z,14.65
2018-12-22T04:50:54.967Z,14.71
2018-12-22T04:53:21.680Z,14.70
2018-12-22T04:55:48.321Z,14.78
2018-12-22T04:58:15.025Z,14.77
2018-12-22T05:00:41.742Z,14.74
2018-12-22T05:03:08.390Z,14.72
2018-12-22T05:05:35.035Z,14.67
2018-12-22T05:08:01.686Z,14.63
2018-12-22T05:10:28.321Z,14.60
2018-12-22T05:12:54.966Z,14.59
2018-12-22T05:15:21.626Z,14.56
2018-12-22T05:17:48.344Z,14.53
2018-12-22T05:20:15.532Z,14.52
2018-12-22T05:22:41.689Z,14.54
2018-12-22T05:25:08.335Z,14.51
2018-12-22T05:27:34.988Z,14.49
2018-12-22T05:30:01.645Z,14.47
2018-12-22T05:32:28.286Z,14.47
2018-12-22T05:34:55.495Z,14.48
2018-12-22T05:37:21.571Z,14.48
2018-12-22T05:39:48.220Z,14.46
2018-12-22T05:42:14.857Z,14.47
2018-12-22T05:44:41.622Z,14.44
2018-12-22T05:47:08.310Z,14.44
2018-12-22T05:49:34.953Z,14.43
2018-12-22T05:52:01.599Z,14.45
2018-12-22T05:54:28.382Z,14.49
2018-12-22T05:56:55.034Z,14.50
2018-12-22T05:59:21.670Z,14.58
2018-12-22T06:01:48.321Z,14.59
2018-12-22T06:04:14.962Z,14.57
2018-12-22T06:06:41.618Z,14.57
2018-12-22T06:09:08.265Z,14.51
2018-12-22T06:11:34.907Z,14.45
2018-12-22T06:14:01.561Z,14.45
2018-12-22T06:16:28.287Z,14.42
2018-12-22T06:18:54.886Z,14.43
2018-12-22T06:21:21.527Z,14.38
2018-12-22T06:23:48.165Z,14.41
2018-12-22T06:26:14.849Z,14.41
2018-12-22T06:28:41.533Z,14.37
2018-12-22T06:31:08.183Z,14.37
2018-12-22T06:33:34.868Z,14.41
2018-12-22T06:36:01.524Z,14.38
2018-12-22T06:38:28.228Z,14.35
2018-12-22T06:40:54.874Z,14.36
2018-12-22T06:43:21.528Z,14.36
2018-12-22T06:45:48.177Z,14.33
2018-12-22T06:48:14.960Z,14.33
2018-12-22T06:50:41.611Z,14.34
2018-12-22T06:53:08.321Z,14.33
2018-12-22T06:55:34.961Z,14.32
2018-12-22T06:58:01.598Z,14.37
2018-12-22T07:00:28.259Z,14.38
2018-12-22T07:02:54.942Z,14.41
2018-12-22T07:05:21.585Z,14.42
2018-12-22T07:07:48.221Z,14.42
2018-12-22T07:10:14.926Z,14.41
2018-12-22T07:12:41.622Z,14.36
2018-12-22T07:15:08.260Z,14.31
2018-12-22T07:17:34.953Z,14.30
2018-12-22T07:20:01.607Z,14.26
2018-12-22T07:22:28.302Z,14.25
2018-12-22T07:24:54.996Z,14.23
2018-12-22T07:27:21.634Z,14.22
2018-12-22T07:29:48.274Z,14.22
2018-12-22T07:32:14.925Z,14.19
2018-12-22T07:34:41.560Z,14.15
2018-12-22T07:37:08.266Z,14.12
2018-12-22T07:39:34.905Z,14.12
2018-12-22T07:42:01.548Z,14.10
2018-12-22T07:44:28.223Z,14.08
2018-12-22T07:46:54.917Z,14.05
2018-12-22T07:49:21.561Z,14.04
2018-12-22T07:51:48.334Z,14.06
2018-12-22T07:54:14.965Z,14.04
2018-12-22T07:56:41.629Z,14.03
2018-12-22T07:59:08.246Z,14.03
2018-12-22T08:01:34.940Z,14.02
2018-12-22T08:04:01.582Z,14.04
2018-12-22T08:06:28.228Z,14.10
2018-12-22T08:08:54.985Z,14.07
2018-12-22T08:11:21.572Z,14.06
2018-12-22T08:13:48.217Z,14.03
2018-12-22T08:16:14.880Z,14.01
2018-12-22T08:18:41.557Z,14.04
2018-12-22T08:21:08.197Z,14.00
2018-12-22T08:23:34.886Z,13.94
2018-12-22T08:26:01.544Z,13.94
2018-12-22T08:28:28.248Z,13.94
2018-12-22T08:30:54.939Z,13.91
2018-12-22T08:33:21.637Z,13.88
2018-12-22T08:35:48.328Z,13.86
2018-12-22T08:38:14.987Z,13.82
2018-12-22T08:40:41.691Z,13.83
2018-12-22T08:43:08.340Z,13.82
2018-12-22T08:45:35.000Z,13.86
2018-12-22T08:48:01.703Z,13.87
2018-12-22T08:50:28.412Z,14.00
2018-12-22T08:52:55.185Z,14.07
2018-12-22T08:55:21.826Z,14.04
2018-12-22T08:57:48.483Z,13.99
2018-12-22T09:00:15.177Z,13.99
2018-12-22T09:02:41.880Z,13.97
2018-12-22T09:05:08.533Z,13.97
2018-12-22T09:07:35.278Z,13.92
2018-12-22T09:10:01.833Z,13.91
2018-12-22T09:12:28.591Z,13.95
2018-12-22T09:14:55.242Z,13.93
2018-12-22T09:17:21.891Z,13.97
2018-12-22T09:19:48.534Z,14.03
2018-12-22T09:22:15.258Z,13.98
2018-12-22T09:24:41.887Z,14.15
2018-12-22T09:27:08.528Z,14.45
2018-12-22T09:29:35.226Z,14.54
2018-12-22T09:32:01.870Z,14.43
2018-12-22T09:34:28.565Z,14.38
2018-12-22T09:36:55.287Z,14.33
2018-12-22T09:39:21.982Z,14.33
2018-12-22T09:41:48.629Z,14.29
2018-12-22T09:44:15.278Z,14.31
2018-12-22T09:46:41.928Z,14.28
2018-12-22T09:49:08.634Z,14.23
2018-12-22T09:51:35.272Z,14.26
2018-12-22T09:54:01.916Z,14.26
2018-12-22T09:56:28.580Z,14.34
2018-12-22T09:58:55.273Z,14.36
2018-12-22T10:01:21.945Z,14.39
2018-12-22T10:03:48.629Z,14.43
2018-12-22T10:06:15.424Z,14.46
2018-12-22T10:08:42.071Z,14.45
2018-12-22T10:11:08.822Z,14.45
2018-12-22T10:13:35.462Z,14.51
2018-12-22T10:16:02.168Z,14.46
2018-12-22T10:18:30.116Z,14.46
2018-12-22T10:20:55.453Z,14.47
2018-12-22T10:23:22.213Z,14.53
2018-12-22T10:25:48.852Z,14.53
2018-12-22T10:28:15.549Z,14.56
2018-12-22T10:30:42.188Z,14.55
2018-12-22T10:33:08.830Z,14.57
2018-12-22T10:35:35.475Z,14.56
2018-12-22T10:38:02.161Z,14.61
2018-12-22T10:40:28.806Z,14.62
2018-12-22T10:42:55.495Z,14.70
2018-12-22T10:45:22.188Z,14.68
2018-12-22T10:47:48.926Z,14.76
2018-12-22T10:50:15.538Z,14.73
2018-12-22T10:52:42.182Z,14.76
2018-12-22T10:55:08.881Z,14.74
2018-12-22T10:57:35.527Z,14.83
2018-12-22T11:00:02.166Z,14.82
2018-12-22T11:02:28.825Z,14.84
2018-12-22T11:04:55.505Z,14.85
2018-12-22T11:07:22.174Z,14.89
2018-12-22T11:09:48.813Z,14.89
2018-12-22T11:12:15.515Z,14.92
2018-12-22T11:14:42.172Z,14.89
2018-12-22T11:17:11.860Z,14.96
2018-12-22T11:19:38.514Z,14.91
2018-12-22T11:22:05.145Z,14.97
2018-12-22T11:24:31.847Z,15.01
2018-12-22T11:26:58.500Z,15.07
2018-12-22T11:29:25.142Z,15.09
2018-12-22T11:31:51.798Z,15.11
2018-12-22T11:34:18.494Z,15.08
2018-12-22T11:36:45.191Z,15.14
2018-12-22T11:39:11.835Z,15.17
2018-12-22T11:41:38.489Z,15.24
2018-12-22T11:44:05.140Z,15.21
2018-12-22T11:46:31.838Z,15.25
2018-12-22T11:48:58.537Z,15.20
2018-12-22T11:51:25.182Z,15.34
2018-12-22T11:53:51.819Z,15.34
2018-12-22T11:56:18.515Z,15.38
2018-12-22T11:58:45.158Z,15.35
2018-12-22T12:01:11.855Z,15.39
2018-12-22T12:03:38.490Z,15.46
2018-12-22T12:06:05.176Z,15.50
2018-12-22T12:08:31.827Z,15.51
2018-12-22T12:11:00.422Z,15.56
2018-12-22T12:13:25.225Z,15.54
2018-12-22T12:15:51.875Z,15.56
2018-12-22T12:18:18.573Z,15.58
2018-12-22T12:20:45.219Z,15.60
2018-12-22T12:23:14.773Z,15.62
2018-12-22T12:25:41.480Z,15.63
2018-12-22T12:28:08.134Z,15.73
2018-12-22T12:30:34.821Z,15.75
2018-12-22T12:33:01.514Z,15.80
2018-12-22T12:35:28.154Z,15.83
2018-12-22T12:37:54.874Z,15.85
2018-12-22T12:40:21.518Z,15.82
2018-12-22T12:42:48.218Z,15.86
2018-12-22T12:45:14.907Z,15.90
2018-12-22T12:47:41.610Z,15.94
2018-12-22T12:50:08.309Z,15.96
2018-12-22T12:52:34.958Z,15.98
2018-12-22T12:55:01.609Z,15.96
2018-12-22T12:57:28.252Z,16.03
2018-12-22T12:59:54.909Z,16.02
2018-12-22T13:02:21.544Z,16.08
2018-12-22T13:04:48.217Z,16.11
2018-12-22T13:07:14.856Z,16.11
2018-12-22T13:09:41.495Z,16.16
2018-12-22T13:12:08.778Z,16.18
2018-12-22T13:14:35.425Z,16.21
2018-12-22T13:17:02.069Z,16.24
2018-12-22T13:19:28.716Z,16.25
2018-12-22T13:21:55.376Z,16.28
2018-12-22T13:24:22.034Z,16.33
2018-12-22T13:26:48.668Z,16.31
2018-12-22T13:29:15.325Z,16.40
2018-12-22T13:31:42.059Z,16.40
2018-12-22T13:34:08.604Z,16.41
2018-12-22T13:36:35.255Z,16.49
2018-12-22T13:39:01.905Z,16.44
2018-12-22T13:41:28.666Z,16.48
2018-12-22T13:43:55.358Z,16.51
2018-12-22T13:46:22.114Z,16.54
2018-12-22T13:48:48.826Z,16.59
2018-12-22T13:51:15.423Z,16.64
2018-12-22T13:53:44.981Z,16.65
2018-12-22T13:56:11.636Z,16.68
2018-12-22T13:58:38.281Z,16.74
2018-12-22T14:01:04.919Z,16.77
2018-12-22T14:03:31.575Z,16.77
2018-12-22T14:05:58.216Z,16.84
2018-12-22T14:08:24.911Z,16.87
2018-12-22T14:10:51.548Z,16.87
2018-12-22T14:13:18.189Z,16.91
2018-12-22T14:15:46.304Z,16.93
2018-12-22T14:18:11.481Z,16.91
2018-12-22T14:20:38.133Z,16.94
2018-12-22T14:23:04.785Z,16.98
2018-12-22T14:25:31.416Z,16.94
2018-12-22T14:27:58.066Z,16.99
2018-12-22T14:30:24.729Z,16.98
2018-12-22T14:32:51.377Z,17.01
2018-12-22T14:35:18.017Z,17.01
2018-12-22T14:37:44.662Z,17.01
2018-12-22T14:40:11.302Z,17.03
2018-12-22T14:42:37.947Z,17.04
2018-12-22T14:45:04.602Z,17.04
2018-12-22T14:47:31.343Z,17.02
2018-12-22T14:49:57.984Z,17.04
2018-12-22T14:52:24.622Z,17.04
2018-12-22T14:54:51.273Z,17.02
2018-12-22T14:57:17.908Z,17.00
2018-12-22T14:59:44.581Z,17.03
2018-12-22T15:02:11.232Z,17.03
2018-12-22T15:04:37.882Z,17.05
2018-12-22T15:07:04.526Z,17.03
2018-12-22T15:09:31.164Z,17.04
2018-12-22T15:11:57.832Z,17.02
2018-12-22T15:14:24.474Z,17.05
2018-12-22T15:16:51.130Z,16.98
2018-12-22T15:19:17.769Z,17.04
2018-12-22T15:21:44.416Z,17.03
2018-12-22T15:24:11.068Z,17.08
2018-12-22T15:26:37.725Z,17.12
2018-12-22T15:29:04.366Z,17.23
2018-12-22T15:31:31.019Z,17.14
2018-12-22T15:33:57.676Z,17.13
2018-12-22T15:36:24.358Z,17.12
2018-12-22T15:38:51.012Z,17.09
2018-12-22T15:41:17.650Z,17.07
2018-12-22T15:43:44.303Z,16.99
2018-12-22T15:46:10.949Z,16.99
2018-12-22T15:48:37.589Z,16.99
2018-12-22T15:51:04.241Z,16.98
2018-12-22T15:53:30.876Z,16.99
2018-12-22T15:55:59.368Z,16.96
2018-12-22T15:58:24.175Z,17.00
2018-12-22T16:00:50.824Z,17.00
2018-12-22T16:03:17.463Z,17.02
2018-12-22T16:05:44.110Z,17.04
2018-12-22T16:08:10.746Z,17.04
2018-12-22T16:10:37.389Z,17.05
2018-12-22T16:13:04.055Z,17.03
2018-12-22T16:15:30.697Z,17.03
2018-12-22T16:17:57.342Z,17.06
2018-12-22T16:20:24.058Z,17.09
2018-12-22T16:22:50.769Z,16.99
2018-12-22T16:25:17.422Z,17.10
2018-12-22T16:27:44.072Z,17.10
2018-12-22T16:30:10.713Z,17.07
2018-12-22T16:32:37.418Z,17.13
2018-12-22T16:35:04.111Z,17.12
2018-12-22T16:37:30.749Z,17.15
2018-12-22T16:39:57.405Z,17.13
2018-12-22T16:42:24.043Z,17.11
2018-12-22T16:44:50.691Z,17.09
2018-12-22T16:47:17.343Z,17.09
2018-12-22T16:49:43.986Z,17.12
2018-12-22T16:52:10.676Z,17.14
2018-12-22T16:54:37.318Z,17.10
2018-12-22T16:57:03.968Z,17.13
2018-12-22T16:59:30.603Z,17.11
2018-12-22T17:01:57.250Z,17.11
2018-12-22T17:04:23.913Z,17.11
2018-12-22T17:06:50.561Z,17.12
2018-12-22T17:09:17.259Z,17.13
2018-12-22T17:11:43.911Z,17.15
2018-12-22T17:14:10.573Z,17.17
2018-12-22T17:16:37.276Z,17.23
2018-12-22T17:19:03.946Z,17.26
2018-12-22T17:21:31.862Z,17.24
2018-12-22T17:23:57.292Z,17.26
2018-12-22T17:26:23.929Z,17.24
2018-12-22T17:28:50.579Z,17.23
2018-12-22T17:31:17.240Z,17.20
2018-12-22T17:33:43.890Z,17.16
2018-12-22T17:36:10.530Z,17.15
2018-12-22T17:38:37.238Z,17.13
2018-12-22T17:41:03.875Z,17.14
2018-12-22T17:43:30.520Z,17.10
2018-12-22T17:45:57.179Z,17.12
2018-12-22T17:48:23.836Z,17.02
2018-12-22T17:50:50.476Z,16.73
2018-12-22T17:53:17.124Z,17.33
2018-12-22T17:55:43.782Z,17.56
2018-12-22T17:58:10.471Z,17.57
2018-12-22T18:00:37.129Z,17.47
2018-12-22T18:03:03.841Z,17.45
2018-12-22T18:05:30.489Z,17.37
2018-12-22T18:07:57.130Z,17.31
2018-12-22T18:10:23.827Z,17.25
2018-12-22T18:12:50.471Z,17.19
2018-12-22T18:15:17.125Z,17.17
2018-12-22T18:17:43.772Z,17.15
2018-12-22T18:20:10.425Z,17.13
2018-12-22T18:22:37.075Z,17.11
2018-12-22T18:25:03.733Z,17.11
2018-12-22T18:27:30.426Z,17.12
2018-12-22T18:29:57.083Z,17.08
2018-12-22T18:32:23.734Z,17.10
2018-12-22T18:34:50.390Z,17.08
2018-12-22T18:37:17.040Z,17.10
2018-12-22T18:39:43.749Z,17.06
2018-12-22T18:42:10.391Z,17.05
2018-12-22T18:44:37.089Z,17.09
2018-12-22T18:47:03.731Z,17.05
2018-12-22T18:49:30.426Z,17.11
2018-12-22T18:51:57.069Z,17.11
2018-12-22T18:54:23.719Z,17.13
2018-12-22T18:56:50.358Z,17.15
2018-12-22T18:59:17.015Z,17.17
2018-12-22T19:01:43.660Z,17.18
2018-12-22T19:04:10.321Z,17.24
2018-12-22T19:06:36.972Z,17.32
2018-12-22T19:09:03.665Z,17.38
2018-12-22T19:11:30.352Z,17.29
2018-12-22T19:13:56.994Z,17.32
2018-12-22T19:16:23.646Z,17.33
2018-12-22T19:18:50.325Z,17.27
2018-12-22T19:21:16.973Z,17.20
2018-12-22T19:23:43.612Z,17.24
2018-12-22T19:26:10.265Z,17.19
2018-12-22T19:28:36.918Z,17.18
2018-12-22T19:31:03.558Z,17.17
2018-12-22T19:33:30.212Z,17.14
2018-12-22T19:35:56.861Z,17.15
2018-12-22T19:38:23.556Z,17.14
2018-12-22T19:40:50.215Z,17.13
2018-12-22T19:43:16.918Z,17.13
2018-12-22T19:45:43.570Z,17.13
2018-12-22T19:48:10.232Z,17.13
2018-12-22T19:50:36.873Z,17.14
2018-12-22T19:53:03.557Z,17.17
2018-12-22T19:55:30.200Z,17.24
2018-12-22T19:57:56.899Z,17.21
2018-12-22T20:00:23.550Z,17.26
2018-12-22T20:02:50.188Z,17.23
2018-12-22T20:05:16.895Z,17.18
2018-12-22T20:07:43.533Z,17.17
2018-12-22T20:10:10.220Z,17.14
2018-12-22T20:12:36.872Z,17.14
2018-12-22T20:15:03.523Z,17.13
2018-12-22T20:17:30.173Z,17.15
2018-12-22T20:19:56.816Z,17.12
2018-12-22T20:22:23.569Z,17.12
2018-12-22T20:24:50.232Z,17.15
2018-12-22T20:27:16.890Z,17.15
2018-12-22T20:29:43.543Z,17.16
2018-12-22T20:32:10.253Z,17.19
2018-12-22T20:34:36.920Z,17.20
2018-12-22T20:37:03.557Z,17.26
2018-12-22T20:39:30.215Z,17.28
2018-12-22T20:41:56.852Z,17.30
2018-12-22T20:44:23.496Z,17.32
2018-12-22T20:46:50.146Z,17.39
2018-12-22T20:49:16.840Z,17.41
2018-12-22T20:51:43.482Z,17.42
2018-12-22T20:54:10.137Z,17.44
2018-12-22T20:56:36.829Z,17.47
2018-12-22T20:59:03.473Z,17.48
2018-12-22T21:01:30.179Z,17.52
2018-12-22T21:03:56.830Z,17.55
2018-12-22T21:06:23.484Z,17.58
2018-12-22T21:08:50.168Z,17.60
2018-12-22T21:11:16.809Z,17.62
2018-12-22T21:13:43.542Z,17.67
2018-12-22T21:16:10.243Z,17.86
2018-12-22T21:18:36.880Z,17.86
2018-12-22T21:21:03.517Z,17.79
2018-12-22T21:23:30.181Z,17.77
2018-12-22T21:25:56.902Z,17.70
2018-12-22T21:28:23.555Z,17.73
2018-12-22T21:30:50.245Z,17.67
2018-12-22T21:33:16.884Z,17.67
2018-12-22T21:35:52.895Z,17.67
2018-12-22T21:38:10.231Z,17.67
2018-12-22T21:40:36.921Z,17.62
2018-12-22T21:43:03.561Z,17.64
2018-12-22T21:45:30.220Z,17.61
2018-12-22T21:47:56.857Z,17.65
2018-12-22T21:50:23.560Z,17.66
2018-12-22T21:52:50.209Z,17.66
2018-12-22T21:55:16.844Z,17.66
2018-12-22T21:57:43.495Z,17.65
2018-12-22T22:00:10.149Z,17.61
2018-12-22T22:02:36.794Z,17.65
2018-12-22T22:05:03.445Z,17.65
2018-12-22T22:07:30.137Z,17.62
2018-12-22T22:09:56.772Z,17.64
2018-12-22T22:12:23.414Z,17.62
2018-12-22T22:14:50.062Z,17.63
2018-12-22T22:17:16.764Z,17.64
2018-12-22T22:19:43.427Z,17.65
2018-12-22T22:22:10.071Z,17.63
2018-12-22T22:24:36.713Z,17.63
2018-12-22T22:27:03.353Z,17.64
2018-12-22T22:29:30.049Z,17.69
2018-12-22T22:31:56.694Z,17.71
2018-12-22T22:34:23.332Z,17.84
2018-12-22T22:36:50.027Z,17.87
2018-12-22T22:39:16.672Z,17.83
2018-12-22T22:41:43.314Z,17.81
2018-12-22T22:44:09.976Z,17.77
2018-12-22T22:46:36.660Z,17.75
2018-12-22T22:49:03.298Z,17.69
2018-12-22T22:51:29.994Z,17.74
2018-12-22T22:53:56.690Z,17.71
2018-12-22T22:56:23.388Z,17.71
2018-12-22T22:58:50.026Z,17.70
2018-12-22T23:01:16.690Z,17.70
2018-12-22T23:03:43.458Z,17.68
2018-12-22T23:06:10.062Z,17.69
2018-12-22T23:08:36.702Z,17.67
2018-12-22T23:11:03.438Z,17.70
2018-12-22T23:13:29.989Z,17.68
2018-12-22T23:15:56.638Z,17.69
2018-12-22T23:18:23.278Z,17.70
2018-12-22T23:20:49.934Z,17.72
2018-12-22T23:23:16.575Z,17.71
2018-12-22T23:25:43.221Z,17.70
2018-12-22T23:28:09.935Z,17.67
2018-12-22T23:30:36.584Z,17.68
2018-12-22T23:33:03.224Z,17.67
2018-12-22T23:35:29.879Z,17.68
2018-12-22T23:37:56.581Z,17.67
2018-12-22T23:40:23.286Z,17.69
2018-12-22T23:42:49.980Z,17.68
2018-12-22T23:45:16.615Z,17.69
2018-12-22T23:47:43.250Z,17.72
2018-12-22T23:50:09.950Z,17.78
2018-12-22T23:52:36.645Z,17.93
2018-12-22T23:55:03.286Z,17.96
2018-12-22T23:57:29.928Z,17.91
2018-12-22T23:59:56.589Z,17.92
